Louisville, KY

3:53 PM EDT on August 29, 2016 (GMT -0400)
Bowman | | Change Station

Elev 545 ft 38.23 °N, 85.66 °W | Updated 1 hour ago

Clear
Clear
92 °F
Feels Like 96 °F
N
4
Wind Variable Wind from Variable

Today
High -- | Low -- °F
--% Chance of Precip.
Yesterday
High -- | Low -- °F
Precip. -- in
Pressure 30.16 in
Visibility 10.0 miles
Clouds Clear
Heat Index 96 °F
Dew Point 68 °F
Humidity 45%
Rainfall 0.00 in
Snow Depth Not available.
7:10 AM 8:16 PM
Waning Crescent, 7% visible
METAR KLOU 291853Z VRB03KT 10SM CLR 33/20 A3018 RMK AO2 SLP213 T03330200
Pressure 30.16 in
Visibility 10.0 miles
Clouds Clear
Heat Index 96 °F
Dew Point 68 °F
Humidity 45%
Rainfall 0.00 in
Snow Depth Not available.
7:10 AM 8:16 PM
Waning Crescent, 7% visible
METAR KLOU 291853Z VRB03KT 10SM CLR 33/20 A3018 RMK AO2 SLP213 T03330200

10-Day Weather Forecast

Almanac

Astronomy

Aug. 29, 2016 Rise Set
Actual Time
Civil Twilight
Nautical Twilight
Astronomical Twilight
Moon
Length of Visible Light
Length of Day
Tomorrow will be .
, % of the Moon is Illuminated

Today's Extremes

State Highs State Lows

Community

WunderPhotos

Upload Photos

1,935,642 photos uploaded!

WunderBlog® & News

Nearby

Air Quality

  Air Quality AQ Index Pollutant
Not available.

Snow Depth

Station Depth Elevation

Earthquake Activity

City Distance Mag. Time & Date
Minimum magnitude displayed is 2.5.

Coastal Water Temperatures

Place Temperature

Stations

Nearby Weather Stations

Station Location Temp. Windchill Dew Point Humidity Wind Precip. Elev Updated Type
                   

Watches & Warnings

There are currently no watches in effect.